createdAt,value
2023-05-10T00:01:06.556Z,96944.69
2023-05-10T00:03:33.095Z,96943.09
2023-05-10T00:05:59.666Z,96942.53
2023-05-10T00:08:26.211Z,96932.94
2023-05-10T00:10:52.550Z,96936.94
2023-05-10T00:13:19.030Z,96941.47
2023-05-10T00:15:45.507Z,96937.75
2023-05-10T00:18:11.768Z,96946.81
2023-05-10T00:20:38.056Z,96952.16
2023-05-10T00:23:04.571Z,96951.63
2023-05-10T00:25:30.841Z,96961.81
2023-05-10T00:27:57.178Z,96958.31
2023-05-10T00:30:23.520Z,96948.97
2023-05-10T00:32:49.865Z,96956.69
2023-05-10T00:35:16.298Z,96959.38
2023-05-10T00:37:42.701Z,96958.31
2023-05-10T00:40:09.083Z,96959.13
2023-05-10T00:42:35.375Z,96956.47
2023-05-10T00:45:02.000Z,96954.28
2023-05-10T00:47:28.398Z,96967.41
2023-05-10T00:49:54.825Z,96955.91
2023-05-10T00:52:21.228Z,96962.84
2023-05-10T00:54:47.951Z,96962.06
2023-05-10T00:57:14.371Z,96965.78
2023-05-10T00:59:40.665Z,96965.25
2023-05-10T01:02:07.289Z,96968.19
2023-05-10T01:04:33.593Z,96965.00
2023-05-10T01:06:59.960Z,96963.69
2023-05-10T01:09:26.290Z,96962.06
2023-05-10T01:11:52.662Z,96961.00
2023-05-10T01:14:19.072Z,96960.19
2023-05-10T01:16:45.345Z,96963.69
2023-05-10T01:19:11.591Z,96963.94
2023-05-10T01:21:38.111Z,96968.75
2023-05-10T01:24:04.450Z,96966.59
2023-05-10T01:26:30.920Z,96969.28
2023-05-10T01:28:57.359Z,96972.75
2023-05-10T01:31:23.627Z,96970.91
2023-05-10T01:33:50.167Z,96970.09
2023-05-10T01:36:16.394Z,96973.84
2023-05-10T01:38:46.147Z,96975.97
2023-05-10T01:41:12.429Z,96976.25
2023-05-10T01:43:38.783Z,96973.56
2023-05-10T01:46:05.226Z,96981.06
2023-05-10T01:48:31.509Z,96975.72
2023-05-10T01:50:57.799Z,96979.47
2023-05-10T01:53:24.088Z,96978.94
2023-05-10T01:55:50.400Z,96973.06
2023-05-10T01:58:16.645Z,96973.59
2023-05-10T02:00:43.399Z,96972.25
2023-05-10T02:03:09.864Z,96973.34
2023-05-10T02:05:36.283Z,96980.00
2023-05-10T02:08:02.615Z,96977.88
2023-05-10T02:10:28.895Z,96974.66
2023-05-10T02:12:55.207Z,96981.34
2023-05-10T02:15:21.562Z,96979.22
2023-05-10T02:17:47.853Z,96981.63
2023-05-10T02:20:14.294Z,96987.50
2023-05-10T02:22:40.669Z,96989.63
2023-05-10T02:25:28.459Z,96983.75
2023-05-10T02:27:54.871Z,96984.28
2023-05-10T02:30:21.179Z,96979.50
2023-05-10T02:32:47.658Z,96985.06
2023-05-10T02:35:13.892Z,96981.09
2023-05-10T02:37:40.209Z,96985.88
2023-05-10T02:40:06.474Z,96984.81
2023-05-10T02:42:32.882Z,96983.50
2023-05-10T02:44:59.171Z,96982.16
2023-05-10T02:47:25.564Z,96983.50
2023-05-10T02:49:51.840Z,96991.75
2023-05-10T02:52:18.173Z,96983.22
2023-05-10T02:54:44.535Z,96985.31
2023-05-10T02:57:10.870Z,96982.09
2023-05-10T02:59:37.186Z,96986.91
2023-05-10T03:02:03.502Z,96986.38
2023-05-10T03:04:29.830Z,96990.09
2023-05-10T03:06:56.150Z,96986.91
2023-05-10T03:09:22.497Z,96996.75
2023-05-10T03:11:48.833Z,96997.28
2023-05-10T03:14:15.235Z,96998.09
2023-05-10T03:16:44.096Z,97001.81
2023-05-10T03:19:11.278Z,96994.09
2023-05-10T03:21:37.777Z,97005.03
2023-05-10T03:24:04.111Z,97007.69
2023-05-10T03:26:30.449Z,97006.09
2023-05-10T03:28:56.898Z,97008.22
2023-05-10T03:31:23.315Z,97002.09
2023-05-10T03:33:49.745Z,97006.88
2023-05-10T03:36:16.082Z,97008.22
2023-05-10T03:38:42.583Z,97015.41
2023-05-10T03:41:09.078Z,97013.00
2023-05-10T03:43:35.386Z,97013.00
2023-05-10T03:46:01.857Z,97018.34
2023-05-10T03:48:28.199Z,97017.78
2023-05-10T03:50:54.652Z,97020.47
2023-05-10T03:53:21.025Z,97022.59
2023-05-10T03:55:47.324Z,97021.78
2023-05-10T03:58:13.661Z,97027.38
2023-05-10T04:01:10.780Z,97025.78
2023-05-10T04:03:30.597Z,97034.81
2023-05-10T04:05:57.030Z,97038.31
2023-05-10T04:08:23.488Z,97030.03
2023-05-10T04:10:49.842Z,97035.09
2023-05-10T04:13:16.248Z,97036.47
2023-05-10T04:15:42.585Z,97046.03
2023-05-10T04:18:09.146Z,97051.13
2023-05-10T04:20:35.595Z,97057.25
2023-05-10T04:23:01.954Z,97060.47
2023-05-10T04:25:28.273Z,97060.47
2023-05-10T04:27:58.218Z,97062.31
2023-05-10T04:30:30.258Z,97063.13
2023-05-10T04:33:17.105Z,97064.97
2023-05-10T04:35:52.950Z,97067.38
2023-05-10T04:38:19.993Z,97065.78
2023-05-10T04:40:46.434Z,97067.38
2023-05-10T04:45:57.010Z,97063.13
2023-05-10T04:48:23.321Z,97067.91
2023-05-10T04:50:49.728Z,97069.53
2023-05-10T04:53:21.024Z,97077.53
2023-05-10T04:55:47.918Z,97074.88
2023-05-10T04:58:14.144Z,97074.06
2023-05-10T05:00:40.401Z,97079.66
2023-05-10T05:03:12.988Z,97085.81
2023-05-10T05:05:39.352Z,97084.72
2023-05-10T05:08:06.891Z,97094.56
2023-05-10T05:10:34.047Z,97095.38
2023-05-10T05:13:01.282Z,97097.25
2023-05-10T05:15:29.023Z,97099.13
2023-05-10T05:17:56.032Z,97103.66
2023-05-10T05:20:22.726Z,97107.91
2023-05-10T05:22:49.050Z,97106.31
2023-05-10T05:25:15.360Z,97109.78
2023-05-10T05:27:41.675Z,97113.50
2023-05-10T05:30:07.912Z,97114.31
2023-05-10T05:32:34.190Z,97115.34
2023-05-10T05:37:45.214Z,97119.09
2023-05-10T05:40:11.744Z,97125.50
2023-05-10T05:42:38.086Z,97130.84
2023-05-10T05:45:04.892Z,97136.94
2023-05-10T05:47:31.184Z,97132.44
2023-05-10T05:49:57.487Z,97139.63
2023-05-10T05:52:23.776Z,97148.44
2023-05-10T05:54:50.022Z,97146.84
2023-05-10T05:57:16.353Z,97151.34
2023-05-10T05:59:46.261Z,97154.28
2023-05-10T06:02:13.208Z,97158.53
2023-05-10T06:04:44.783Z,97166.53
2023-05-10T06:07:11.197Z,97174.31
2023-05-10T06:09:37.532Z,97169.34
2023-05-10T06:12:03.911Z,97176.41
2023-05-10T06:14:30.268Z,97175.13
2023-05-10T06:16:56.674Z,97173.28
2023-05-10T06:19:23.027Z,97175.69
2023-05-10T06:21:50.395Z,97176.50
2023-05-10T06:24:17.618Z,97191.75
2023-05-10T06:26:44.026Z,97195.50
2023-05-10T06:29:10.290Z,97190.41
2023-05-10T06:31:36.858Z,97187.22
2023-05-10T06:34:06.337Z,97192.03
2023-05-10T06:39:16.976Z,97188.28
2023-05-10T06:41:43.780Z,97198.97
2023-05-10T06:44:10.345Z,97199.22
2023-05-10T06:46:36.995Z,97208.31
2023-05-10T06:49:03.379Z,97213.66
2023-05-10T06:51:29.631Z,97215.78
2023-05-10T06:53:55.908Z,97211.78
2023-05-10T06:56:22.455Z,97211.25
2023-05-10T06:58:48.891Z,97208.03
2023-05-10T07:01:15.346Z,97209.38
2023-05-10T07:03:41.777Z,97210.69
2023-05-10T07:06:11.315Z,97214.69
2023-05-10T07:08:42.188Z,97220.31
2023-05-10T07:11:08.530Z,97221.38
2023-05-10T07:13:34.877Z,97221.88
2023-05-10T07:16:01.304Z,97229.41
2023-05-10T07:18:27.718Z,97228.88
2023-05-10T07:20:54.058Z,97219.50
2023-05-10T07:23:20.422Z,97226.19
2023-05-10T07:25:49.551Z,97232.59
2023-05-10T07:28:16.659Z,97233.63
2023-05-10T07:30:43.221Z,97238.19
2023-05-10T07:33:09.637Z,97234.97
2023-05-10T07:35:36.072Z,97245.66
2023-05-10T07:38:02.363Z,97248.56
2023-05-10T07:40:28.683Z,97249.59
2023-05-10T07:42:55.911Z,97255.44
2023-05-10T07:45:22.643Z,97257.84
2023-05-10T07:47:49.005Z,97260.50
2023-05-10T07:50:15.330Z,97270.63
2023-05-10T07:52:41.632Z,97277.31
2023-05-10T07:55:07.968Z,97269.81
2023-05-10T07:57:34.247Z,97275.69
2023-05-10T08:00:00.522Z,97273.00
2023-05-10T08:02:29.599Z,97269.22
2023-05-10T08:04:56.086Z,97274.59
2023-05-10T08:07:24.364Z,97267.88
2023-05-10T08:09:51.068Z,97298.06
2023-05-10T08:12:17.545Z,97300.69
2023-05-10T08:14:43.856Z,97294.22
2023-05-10T08:17:13.346Z,97294.22
2023-05-10T08:19:39.704Z,97327.34
2023-05-10T08:22:06.020Z,97302.97
2023-05-10T08:24:32.598Z,97306.75
2023-05-10T08:26:58.921Z,97305.94
2023-05-10T08:29:26.656Z,97291.47
2023-05-10T08:31:53.118Z,97296.34
2023-05-10T08:34:19.548Z,97292.28
2023-05-10T08:36:45.813Z,97295.22
2023-05-10T08:39:22.930Z,97312.88
2023-05-10T08:41:53.365Z,97474.66
2023-05-10T08:44:19.788Z,97379.84
2023-05-10T08:46:46.212Z,97358.13
2023-05-10T08:49:12.548Z,97386.19
2023-05-10T08:51:38.978Z,97336.47
2023-05-10T08:54:05.257Z,97318.59
2023-05-10T08:56:31.663Z,97307.69
2023-05-10T08:58:57.994Z,97316.50
2023-05-10T09:01:24.682Z,97311.44
2023-05-10T09:03:51.339Z,97302.13
2023-05-10T09:06:17.692Z,97306.72
2023-05-10T09:08:44.164Z,97317.69
2023-05-10T09:11:10.462Z,97340.41
2023-05-10T09:13:36.743Z,97348.94
2023-05-10T09:16:13.589Z,97342.22
2023-05-10T09:18:47.167Z,97336.09
2023-05-10T09:21:14.329Z,97328.84
2023-05-10T09:23:40.642Z,97335.03
2023-05-10T09:26:06.922Z,97346.78
2023-05-10T09:28:33.191Z,97351.84
2023-05-10T09:30:59.508Z,97362.78
2023-05-10T09:33:25.832Z,97371.31
2023-05-10T09:35:52.114Z,97373.09
2023-05-10T09:38:18.505Z,97388.34
2023-05-10T09:40:44.766Z,97407.03
2023-05-10T09:43:11.129Z,97409.09
2023-05-10T09:45:38.935Z,97401.63
2023-05-10T09:48:06.498Z,97404.59
2023-05-10T09:50:32.915Z,97413.41
2023-05-10T09:52:59.170Z,97408.56
2023-05-10T09:55:25.550Z,97412.25
2023-05-10T09:57:52.376Z,97399.41
2023-05-10T10:00:18.725Z,97404.47
2023-05-10T10:02:45.166Z,97406.34
2023-05-10T10:05:11.664Z,97417.31
2023-05-10T10:07:38.161Z,97408.97
2023-05-10T10:10:04.565Z,97403.59
2023-05-10T10:12:30.987Z,97406.00
2023-05-10T10:14:57.399Z,97407.88
2023-05-10T10:17:23.759Z,97418.31
2023-05-10T10:19:49.999Z,97414.84
2023-05-10T10:22:16.334Z,97422.41
2023-05-10T10:24:42.670Z,97415.69
2023-05-10T10:27:09.126Z,97419.47
2023-05-10T10:29:35.436Z,97418.66
2023-05-10T10:32:01.828Z,97421.66
2023-05-10T10:34:28.099Z,97424.63
2023-05-10T10:36:54.411Z,97424.34
2023-05-10T10:39:20.756Z,97426.72
2023-05-10T10:41:47.076Z,97425.63
2023-05-10T10:44:13.411Z,97432.34
2023-05-10T10:46:39.708Z,97431.47
2023-05-10T10:49:05.997Z,97438.69
2023-05-10T10:51:32.303Z,97447.00
2023-05-10T10:53:58.601Z,97459.28
2023-05-10T10:56:24.915Z,97465.13
2023-05-10T10:58:51.246Z,97464.81
2023-05-10T11:01:17.562Z,97462.09
2023-05-10T11:03:44.400Z,97473.00
2023-05-10T11:06:10.749Z,97476.69
2023-05-10T11:08:38.323Z,97475.00
2023-05-10T11:11:04.821Z,97472.81
2023-05-10T11:13:31.112Z,97465.28
2023-05-10T11:15:57.352Z,97462.59
2023-05-10T11:18:26.924Z,97462.59
2023-05-10T11:20:53.299Z,97453.69
2023-05-10T11:23:19.776Z,97451.81
2023-05-10T11:25:46.339Z,97451.31
2023-05-10T11:28:12.683Z,97446.72
2023-05-10T11:30:39.024Z,97443.22
2023-05-10T11:33:08.953Z,97441.66
2023-05-10T11:35:41.067Z,97433.56
2023-05-10T11:38:15.417Z,97444.28
2023-05-10T11:40:44.846Z,97449.06
2023-05-10T11:43:15.832Z,97442.03
2023-05-10T11:45:47.425Z,97453.00
2023-05-10T11:48:16.689Z,97453.53
2023-05-10T11:50:45.473Z,97452.44
2023-05-10T11:53:16.547Z,97457.81
2023-05-10T11:55:43.350Z,97454.53
2023-05-10T11:58:09.627Z,97452.06
2023-05-10T12:00:35.929Z,97449.38
2023-05-10T12:03:02.940Z,97463.06
2023-05-10T12:05:29.274Z,97453.91
2023-05-10T12:07:55.557Z,97461.69
2023-05-10T12:10:23.352Z,97462.19
2023-05-10T12:12:49.718Z,97460.81
2023-05-10T12:15:18.393Z,97468.28
2023-05-10T12:17:44.752Z,97467.44
2023-05-10T12:20:11.076Z,97473.88
2023-05-10T12:22:37.439Z,97471.41
2023-05-10T12:25:03.778Z,97472.72
2023-05-10T12:27:30.252Z,97476.44
2023-05-10T12:29:56.641Z,97486.25
2023-05-10T12:32:22.872Z,97483.75
2023-05-10T12:34:49.160Z,97488.06
2023-05-10T12:37:15.389Z,97484.28
2023-05-10T12:39:41.667Z,97483.97
2023-05-10T12:42:08.101Z,97483.19
2023-05-10T12:44:34.677Z,97483.19
2023-05-10T12:47:00.997Z,97477.81
2023-05-10T12:49:27.272Z,97482.38
2023-05-10T12:51:53.812Z,97471.31
2023-05-10T12:54:20.180Z,97477.22
2023-05-10T12:56:46.508Z,97478.25
2023-05-10T12:59:12.957Z,97480.34
2023-05-10T13:01:39.522Z,97479.75
2023-05-10T13:04:05.933Z,97486.97
2023-05-10T13:06:32.286Z,97492.59
2023-05-10T13:08:58.650Z,97486.38
2023-05-10T13:11:24.960Z,97476.69
2023-05-10T13:13:51.254Z,97485.56
2023-05-10T13:16:17.761Z,97485.56
2023-05-10T13:18:44.071Z,97488.28
2023-05-10T13:21:10.474Z,97497.97
2023-05-10T13:23:36.805Z,97484.50
2023-05-10T13:26:03.158Z,97478.59
2023-05-10T13:28:29.584Z,97479.38
2023-05-10T13:30:55.925Z,97490.16
2023-05-10T13:33:22.639Z,97483.69
2023-05-10T13:35:49.034Z,97494.16
2023-05-10T13:38:15.263Z,97485.78
2023-05-10T13:40:41.572Z,97480.09
2023-05-10T13:43:07.872Z,97484.41
2023-05-10T13:45:34.371Z,97480.09
2023-05-10T13:48:00.728Z,97487.38
2023-05-10T13:50:27.059Z,97472.03
2023-05-10T13:52:53.322Z,97481.22
2023-05-10T13:55:19.835Z,97475.31
2023-05-10T13:57:46.524Z,97472.09
2023-05-10T14:00:12.825Z,97471.31
2023-05-10T14:02:39.268Z,97461.41
2023-05-10T14:05:05.613Z,97476.41
2023-05-10T14:07:32.072Z,97477.50
2023-05-10T14:09:58.448Z,97476.22
2023-05-10T14:12:28.706Z,97477.28
2023-05-10T14:14:55.222Z,97473.78
2023-05-10T14:17:21.641Z,97474.88
2023-05-10T14:19:48.107Z,97463.38
2023-05-10T14:22:14.897Z,97477.56
2023-05-10T14:24:41.718Z,97467.63
2023-05-10T14:27:07.982Z,97479.16
2023-05-10T14:29:34.293Z,97479.16
2023-05-10T14:32:00.612Z,97478.09
2023-05-10T14:34:26.969Z,97480.28
2023-05-10T14:36:53.229Z,97483.25
2023-05-10T14:39:19.701Z,97494.03
2023-05-10T14:41:45.976Z,97504.50
2023-05-10T14:44:12.467Z,97505.31
2023-05-10T14:46:40.090Z,97497.25
2023-05-10T14:49:06.433Z,97494.53
2023-05-10T14:51:33.166Z,97491.84
2023-05-10T14:53:59.921Z,97487.84
2023-05-10T14:56:26.454Z,97478.16
2023-05-10T14:58:53.051Z,97475.78
2023-05-10T15:01:19.814Z,97481.16
2023-05-10T15:03:46.729Z,97482.53
2023-05-10T15:06:17.039Z,97472.88
2023-05-10T15:08:43.406Z,97470.16
2023-05-10T15:13:36.119Z,97459.97
2023-05-10T15:16:02.651Z,97457.28
2023-05-10T15:18:29.069Z,97458.38
2023-05-10T15:20:55.429Z,97457.88
2023-05-10T15:23:21.787Z,97460.03
2023-05-10T15:25:48.216Z,97457.66
2023-05-10T15:28:14.655Z,97455.25
2023-05-10T15:30:40.994Z,97446.66
2023-05-10T15:33:07.331Z,97455.84
2023-05-10T15:35:33.699Z,97460.13
2023-05-10T15:38:00.045Z,97455.03
2023-05-10T15:40:26.364Z,97460.41
2023-05-10T15:42:52.818Z,97468.50
2023-05-10T15:45:19.422Z,97459.91
2023-05-10T15:47:45.895Z,97453.72
2023-05-10T15:50:12.570Z,97464.47
2023-05-10T15:52:38.930Z,97468.28
2023-05-10T15:55:05.340Z,97466.69
2023-05-10T15:57:31.790Z,97463.47
2023-05-10T15:59:58.048Z,97470.75
2023-05-10T16:02:24.523Z,97464.84
2023-05-10T16:04:51.035Z,97478.59
2023-05-10T16:07:17.503Z,97470.00
2023-05-10T16:09:44.082Z,97474.88
2023-05-10T16:12:10.591Z,97475.19
2023-05-10T16:14:37.215Z,97480.84
2023-05-10T16:17:06.754Z,97479.53
2023-05-10T16:19:33.122Z,97480.63
2023-05-10T16:21:59.550Z,97483.59
2023-05-10T16:24:26.001Z,97481.97
2023-05-10T16:26:52.333Z,97480.69
2023-05-10T16:29:18.830Z,97482.84
2023-05-10T16:31:45.417Z,97482.34
2023-05-10T16:34:11.701Z,97488.00
2023-05-10T16:36:37.989Z,97484.81
2023-05-10T16:39:04.320Z,97485.63
2023-05-10T16:41:30.689Z,97484.03
2023-05-10T16:43:58.309Z,97486.97
2023-05-10T16:46:24.789Z,97490.78
2023-05-10T16:48:51.229Z,97492.94
2023-05-10T16:51:17.902Z,97488.66
2023-05-10T16:53:44.510Z,97491.66
2023-05-10T16:56:11.265Z,97497.28
2023-05-10T16:58:37.797Z,97500.28
2023-05-10T17:01:04.358Z,97497.06
2023-05-10T17:03:31.104Z,97495.47
2023-05-10T17:05:57.570Z,97501.16
2023-05-10T17:08:23.932Z,97493.66
2023-05-10T17:10:50.239Z,97490.44
2023-05-10T17:13:16.563Z,97493.44
2023-05-10T17:15:42.986Z,97491.00
2023-05-10T17:18:09.439Z,97493.97
2023-05-10T17:20:35.968Z,97496.16
2023-05-10T17:23:02.352Z,97502.13
2023-05-10T17:25:28.663Z,97509.66
2023-05-10T17:27:54.938Z,97501.88
2023-05-10T17:30:21.253Z,97508.66
2023-05-10T17:32:47.812Z,97512.69
2023-05-10T17:35:14.543Z,97510.59
2023-05-10T17:37:41.004Z,97515.16
2023-05-10T17:40:07.317Z,97523.53
2023-05-10T17:42:34.070Z,97513.34
2023-05-10T17:45:15.105Z,97516.31
2023-05-10T17:47:42.350Z,97518.50
2023-05-10T17:50:09.035Z,97514.47
2023-05-10T17:52:35.538Z,97518.25
2023-05-10T17:55:01.892Z,97518.81
2023-05-10T17:57:28.371Z,97522.59
2023-05-10T17:59:54.732Z,97526.63
2023-05-10T18:02:21.177Z,97529.56
2023-05-10T18:04:47.740Z,97531.78
2023-05-10T18:07:14.287Z,97533.13
2023-05-10T18:09:40.718Z,97533.41
2023-05-10T18:12:06.987Z,97530.22
2023-05-10T18:17:02.661Z,97535.06
2023-05-10T18:19:28.998Z,97534.00
2023-05-10T18:21:55.414Z,97532.41
2023-05-10T18:24:34.223Z,97527.34
2023-05-10T18:27:05.114Z,97539.44
2023-05-10T18:29:31.512Z,97538.66
2023-05-10T18:31:57.829Z,97538.41
2023-05-10T18:34:24.141Z,97540.28
2023-05-10T18:36:50.436Z,97538.97
2023-05-10T18:39:16.849Z,97541.16
2023-05-10T18:41:43.254Z,97540.63
2023-05-10T18:44:09.539Z,97543.59
2023-05-10T18:46:35.970Z,97543.84
2023-05-10T18:49:02.640Z,97544.13
2023-05-10T18:51:28.937Z,97543.63
2023-05-10T18:53:55.275Z,97541.22
2023-05-10T18:56:21.645Z,97541.78
2023-05-10T18:58:47.906Z,97540.97
2023-05-10T19:01:14.353Z,97549.31
2023-05-10T19:03:40.814Z,97548.78
2023-05-10T19:06:07.196Z,97554.44
2023-05-10T19:08:39.545Z,97558.22
2023-05-10T19:11:05.850Z,97563.06
2023-05-10T19:13:32.115Z,97568.72
2023-05-10T19:15:59.577Z,97567.41
2023-05-10T19:18:26.025Z,97567.69
2023-05-10T19:20:54.342Z,97572.53
2023-05-10T19:23:20.783Z,97573.63
2023-05-10T19:25:47.947Z,97572.00
2023-05-10T19:28:14.354Z,97579.56
2023-05-10T19:30:40.792Z,97575.25
2023-05-10T19:33:10.337Z,97574.72
2023-05-10T19:35:37.387Z,97576.88
2023-05-10T19:38:04.570Z,97575.28
2023-05-10T19:40:31.007Z,97579.06
2023-05-10T19:42:57.392Z,97584.69
2023-05-10T19:45:23.717Z,97580.41
2023-05-10T19:47:50.259Z,97589.56
2023-05-10T19:50:16.787Z,97586.31
2023-05-10T19:52:43.202Z,97589.28
2023-05-10T19:55:09.691Z,97580.69
2023-05-10T19:57:36.196Z,97582.84
2023-05-10T20:00:02.625Z,97583.91
2023-05-10T20:02:28.908Z,97587.69
2023-05-10T20:04:55.180Z,97589.84
2023-05-10T20:07:21.468Z,97590.94
2023-05-10T20:09:47.744Z,97591.22
2023-05-10T20:12:14.068Z,97592.28
2023-05-10T20:14:43.560Z,97586.38
2023-05-10T20:17:11.230Z,97588.28
2023-05-10T20:19:37.731Z,97585.06
2023-05-10T20:22:04.009Z,97586.13
2023-05-10T20:24:30.556Z,97586.41
2023-05-10T20:26:57.738Z,97590.19
2023-05-10T20:29:24.587Z,97580.50
2023-05-10T20:31:50.948Z,97587.25
2023-05-10T20:34:17.355Z,97591.53
2023-05-10T20:36:43.699Z,97591.00
2023-05-10T20:39:10.426Z,97587.81
2023-05-10T20:41:36.805Z,97581.63
2023-05-10T20:44:03.159Z,97581.91
2023-05-10T20:46:29.689Z,97578.41
2023-05-10T20:48:56.319Z,97577.88
2023-05-10T20:51:22.583Z,97577.88
2023-05-10T20:53:48.864Z,97576.28
2023-05-10T20:56:15.219Z,97580.03
2023-05-10T20:58:41.500Z,97586.22
2023-05-10T21:01:07.985Z,97580.03
2023-05-10T21:03:34.254Z,97578.16
2023-05-10T21:06:10.791Z,97583.53
2023-05-10T21:08:37.284Z,97574.94
2023-05-10T21:11:03.881Z,97579.78
2023-05-10T21:13:30.332Z,97578.19
2023-05-10T21:15:56.668Z,97574.16
2023-05-10T21:18:23.218Z,97570.69
2023-05-10T21:20:49.585Z,97570.16
2023-05-10T21:23:15.881Z,97569.91
2023-05-10T21:25:42.144Z,97572.38
2023-05-10T21:28:08.684Z,97564.63
2023-05-10T21:30:34.941Z,97564.16
2023-05-10T21:33:01.620Z,97568.22
2023-05-10T21:35:28.333Z,97563.94
2023-05-10T21:37:54.803Z,97572.25
2023-05-10T21:40:21.209Z,97565.00
2023-05-10T21:42:48.036Z,97571.66
2023-05-10T21:45:14.600Z,97567.66
2023-05-10T21:47:40.916Z,97578.88
2023-05-10T21:50:07.276Z,97569.78
2023-05-10T21:52:33.803Z,97567.09
2023-05-10T21:55:00.131Z,97572.69
2023-05-10T21:57:26.492Z,97573.19
2023-05-10T21:59:52.926Z,97572.88
2023-05-10T22:02:19.272Z,97569.06
2023-05-10T22:04:45.730Z,97573.34
2023-05-10T22:07:12.150Z,97580.25
2023-05-10T22:09:42.015Z,97578.59
2023-05-10T22:12:09.434Z,97578.53
2023-05-10T22:14:35.774Z,97577.72
2023-05-10T22:17:02.151Z,97582.22
2023-05-10T22:19:28.468Z,97583.81
2023-05-10T22:21:54.932Z,97587.25
2023-05-10T22:24:21.412Z,97592.31
2023-05-10T22:26:47.797Z,97586.94
2023-05-10T22:29:14.245Z,97590.38
2023-05-10T22:31:40.661Z,97593.81
2023-05-10T22:34:07.205Z,97591.88
2023-05-10T22:36:33.604Z,97590.78
2023-05-10T22:39:00.189Z,97601.44
2023-05-10T22:41:26.529Z,97594.19
2023-05-10T22:43:53.689Z,97599.47
2023-05-10T22:46:20.000Z,97597.84
2023-05-10T22:48:46.497Z,97599.41
2023-05-10T22:51:12.810Z,97599.91
2023-05-10T22:53:39.174Z,97608.69
2023-05-10T22:56:05.556Z,97612.09
2023-05-10T22:58:31.892Z,97603.25
2023-05-10T23:00:58.252Z,97612.84
2023-05-10T23:03:24.595Z,97615.47
2023-05-10T23:05:50.966Z,97611.94
2023-05-10T23:08:17.522Z,97614.88
2023-05-10T23:10:43.828Z,97616.16
2023-05-10T23:13:10.224Z,97616.66
2023-05-10T23:15:36.572Z,97622.50
2023-05-10T23:18:02.938Z,97624.63
2023-05-10T23:20:29.299Z,97622.69
2023-05-10T23:22:55.625Z,97618.69
2023-05-10T23:25:21.970Z,97629.03
2023-05-10T23:27:48.499Z,97632.19
2023-05-10T23:30:14.864Z,97619.34
2023-05-10T23:32:41.353Z,97619.59
2023-05-10T23:35:07.737Z,97619.84
2023-05-10T23:37:34.046Z,97623.53
2023-05-10T23:40:00.355Z,97632.63
2023-05-10T23:42:27.037Z,97628.56
2023-05-10T23:45:09.605Z,97621.63
2023-05-10T23:47:36.157Z,97620.47
2023-05-10T23:50:02.542Z,97621.84
2023-05-10T23:52:28.809Z,97630.56
2023-05-10T23:54:55.239Z,97627.84
2023-05-10T23:57:21.569Z,97620.59
2023-05-10T23:59:51.002Z,97627.22
